Time;durP1;ratioP1;P1;durP2;ratioP2;P2;SDS_P1;SDS_P2;PMS_P1;PMS_P2;Temp;Humidity;BMP_temperature;BMP_pressure;BME280_temperature;BME280_humidity;BME280_pressure;Samples;Min_cycle;Max_cycle;Signal;HPM_P1;HPM_P2
2022/01/19 00:01:11;;;;;;;33.23;19.83;;;5.20;99.90;;;;;;5007675;28;20209;-26
2022/01/19 00:03:42;;;;;;;40.10;21.83;;;5.20;99.90;;;;;;5005412;28;20225;-26
2022/01/19 00:06:12;;;;;;;36.07;20.77;;;5.20;99.90;;;;;;5009092;28;20320;-26
2022/01/19 00:08:40;;;;;;;33.10;21.97;;;5.10;99.90;;;;;;5009701;28;20201;-26
2022/01/19 00:11:07;;;;;;;34.40;21.57;;;5.10;99.90;;;;;;5009472;28;20201;-26
2022/01/19 00:13:35;;;;;;;36.03;21.57;;;5.10;99.90;;;;;;5008855;28;20202;-26
2022/01/19 00:16:05;;;;;;;35.27;20.40;;;5.10;99.90;;;;;;5008862;28;20205;-27
2022/01/19 00:18:32;;;;;;;36.53;19.23;;;5.10;99.90;;;;;;5007448;28;20209;-26
2022/01/19 00:21:00;;;;;;;30.80;19.20;;;5.00;99.90;;;;;;5008908;28;20205;-26
2022/01/19 00:23:29;;;;;;;32.53;19.50;;;5.00;99.90;;;;;;5008966;28;20325;-26
2022/01/19 00:25:56;;;;;;;35.77;20.67;;;5.00;99.90;;;;;;5039815;28;20214;-26
2022/01/19 00:28:24;;;;;;;38.13;21.30;;;4.90;99.90;;;;;;5008023;28;20201;-26
2022/01/19 00:30:52;;;;;;;34.63;19.97;;;4.90;99.90;;;;;;5005755;28;20189;-26
2022/01/19 00:33:19;;;;;;;34.33;19.13;;;4.90;99.90;;;;;;5010123;28;20221;-26
2022/01/19 00:35:51;;;;;;;34.87;20.13;;;4.90;99.90;;;;;;5008573;28;20198;-26
2022/01/19 00:38:21;;;;;;;36.07;21.20;;;4.80;99.90;;;;;;5009253;28;20206;-26
2022/01/19 00:40:49;;;;;;;33.47;20.53;;;4.80;99.90;;;;;;5008886;28;20400;-26
2022/01/19 00:43:18;;;;;;;35.23;21.47;;;4.70;99.90;;;;;;5006527;28;20198;-26
2022/01/19 00:45:45;;;;;;;35.07;22.03;;;4.70;99.90;;;;;;5000613;28;20260;-26
2022/01/19 00:48:26;;;;;;;36.83;20.57;;;4.60;99.90;;;;;;5037312;28;20201;-27
2022/01/19 00:50:54;;;;;;;37.33;20.00;;;4.60;99.90;;;;;;5008149;28;20742;-25
2022/01/19 00:53:22;;;;;;;35.93;20.90;;;4.60;99.90;;;;;;5009130;28;20210;-25
2022/01/19 00:55:50;;;;;;;36.20;21.57;;;4.60;99.90;;;;;;5008581;28;20201;-24
2022/01/19 00:58:19;;;;;;;37.33;21.43;;;4.50;99.90;;;;;;5008743;28;20217;-25
2022/01/19 01:00:47;;;;;;;33.67;19.90;;;4.50;99.90;;;;;;5008969;28;20213;-25
2022/01/19 01:03:18;;;;;;;35.93;21.47;;;4.50;99.90;;;;;;5023199;28;20214;-25
2022/01/19 01:05:47;;;;;;;38.27;20.57;;;4.50;99.90;;;;;;5006525;28;20630;-25
2022/01/19 01:08:14;;;;;;;35.47;20.47;;;4.40;99.90;;;;;;5008368;28;20675;-25
2022/01/19 01:10:45;;;;;;;35.93;20.73;;;4.40;99.90;;;;;;5009006;28;20240;-25
2022/01/19 01:16:15;;;;;;;32.83;20.40;;;4.40;99.90;;;;;;5008235;28;20292;-25
2022/01/19 01:18:43;;;;;;;35.90;20.90;;;4.30;99.90;;;;;;5008927;28;20913;-25
2022/01/19 01:21:11;;;;;;;32.83;20.03;;;4.30;99.90;;;;;;5008848;28;20601;-25
2022/01/19 01:23:40;;;;;;;35.20;21.20;;;4.30;99.90;;;;;;5008309;28;20201;-25
2022/01/19 01:26:09;;;;;;;33.83;20.93;;;4.20;99.90;;;;;;5004576;28;20233;-25
2022/01/19 01:28:36;;;;;;;35.70;20.20;;;4.20;99.90;;;;;;5039286;28;20243;-25
2022/01/19 01:31:04;;;;;;;36.07;20.13;;;4.20;99.90;;;;;;5003850;28;20227;-25
2022/01/19 01:33:34;;;;;;;35.17;21.07;;;4.20;99.90;;;;;;5006217;28;20324;-25
2022/01/19 01:36:04;;;;;;;34.13;19.93;;;4.10;99.90;;;;;;5004372;28;20257;-27
2022/01/19 01:38:31;;;;;;;33.30;19.27;;;4.10;99.90;;;;;;5004167;28;20252;-26
2022/01/19 01:41:14;;;;;;;31.67;19.50;;;4.10;99.90;;;;;;5007596;28;20205;-26
2022/01/19 01:43:49;;;;;;;35.77;20.53;;;4.10;99.90;;;;;;5007997;28;20201;-26
2022/01/19 01:46:54;;;;;;;32.27;19.17;;;4.00;99.90;;;;;;5007711;28;20237;-27
2022/01/19 01:49:19;;;;;;;33.33;19.37;;;4.00;99.90;;;;;;5007819;28;20201;-25
2022/01/19 01:54:35;;;;;;;38.53;21.50;;;3.90;99.90;;;;;;5007620;28;20197;-25
2022/01/19 01:57:05;;;;;;;39.23;21.60;;;3.90;99.90;;;;;;5008353;28;20540;-25
2022/01/19 01:59:36;;;;;;;43.43;22.37;;;3.90;99.90;;;;;;5005889;28;20214;-25
2022/01/19 02:02:05;;;;;;;48.10;24.37;;;3.80;99.90;;;;;;5007038;28;20224;-25
2022/01/19 02:04:34;;;;;;;45.67;24.57;;;3.80;99.90;;;;;;5005572;28;20241;-25
2022/01/19 02:09:53;;;;;;;44.80;23.63;;;3.80;99.90;;;;;;5006411;28;20660;-25
2022/01/19 02:23:38;;;;;;;35.50;21.17;;;3.70;99.90;;;;;;5011765;28;20679;-26
2022/01/19 02:26:13;;;;;;;38.37;20.87;;;3.60;99.90;;;;;;5011629;28;20225;-27
2022/01/19 02:42:39;;;;;;;29.40;19.60;;;3.50;99.90;;;;;;5001368;28;20271;-27
2022/01/19 02:50:25;;;;;;;35.13;20.00;;;3.40;99.90;;;;;;5009627;28;20233;-27
2022/01/19 02:52:53;;;;;;;30.97;19.43;;;3.40;99.90;;;;;;5009847;28;20201;-27
2022/01/19 02:55:23;;;;;;;26.77;17.83;;;3.30;99.90;;;;;;5010981;28;20213;-27
2022/01/19 02:57:50;;;;;;;28.40;19.00;;;3.30;99.90;;;;;;5009444;28;20653;-26
2022/01/19 03:08:47;;;;;;;26.70;18.13;;;3.30;99.90;;;;;;5010985;28;20217;-27
2022/01/19 03:11:17;;;;;;;30.43;18.30;;;3.20;99.90;;;;;;5008321;28;20232;-27
2022/01/19 03:13:49;;;;;;;27.80;18.23;;;3.20;99.90;;;;;;5009955;28;20587;-27
2022/01/19 03:16:18;;;;;;;28.10;19.03;;;3.20;99.90;;;;;;5010477;28;20282;-27
2022/01/19 03:18:48;;;;;;;26.53;18.07;;;3.20;99.90;;;;;;5010133;28;20216;-26
2022/01/19 03:21:17;;;;;;;26.93;18.23;;;3.30;99.90;;;;;;5008970;28;20692;-26
2022/01/19 03:23:47;;;;;;;26.53;17.80;;;3.30;99.90;;;;;;5008538;28;20213;-27
2022/01/19 03:26:16;;;;;;;25.73;17.80;;;3.30;99.90;;;;;;5009201;28;20218;-27
2022/01/19 03:28:46;;;;;;;26.63;18.07;;;3.30;99.90;;;;;;5008464;28;20217;-26
2022/01/19 03:31:15;;;;;;;24.90;17.80;;;3.30;99.90;;;;;;5007349;28;20453;-27
2022/01/19 03:33:44;;;;;;;27.70;18.27;;;3.40;99.90;;;;;;5041948;28;20225;-27
2022/01/19 03:36:17;;;;;;;25.30;17.63;;;3.40;99.90;;;;;;5009271;28;20305;-27
2022/01/19 03:38:44;;;;;;;27.57;18.33;;;3.50;99.90;;;;;;5004049;28;20569;-27
2022/01/19 03:41:14;;;;;;;29.17;17.87;;;3.50;99.90;;;;;;5040665;28;20755;-27
2022/01/19 03:43:41;;;;;;;25.60;17.17;;;3.60;99.90;;;;;;5041609;28;20217;-26
2022/01/19 03:46:14;;;;;;;28.73;18.53;;;3.60;99.90;;;;;;5009800;28;20714;-27
2022/01/19 03:48:51;;;;;;;27.23;17.80;;;3.70;99.90;;;;;;5008785;28;20212;-26
2022/01/19 03:51:19;;;;;;;27.37;17.77;;;3.70;99.90;;;;;;5008275;28;20221;-27
2022/01/19 03:53:48;;;;;;;25.47;17.23;;;3.80;99.90;;;;;;5010237;28;20551;-27
2022/01/19 03:56:18;;;;;;;28.07;18.47;;;3.90;99.90;;;;;;5006124;28;20215;-27
2022/01/19 03:58:45;;;;;;;27.30;17.87;;;3.90;99.90;;;;;;5009628;28;20217;-27
2022/01/19 04:01:13;;;;;;;29.43;18.53;;;4.00;99.90;;;;;;5009396;28;20292;-27
2022/01/19 04:04:07;;;;;;;32.30;19.37;;;4.00;99.90;;;;;;5009485;28;20217;-27
2022/01/19 04:06:55;;;;;;;26.10;17.77;;;4.00;99.90;;;;;;4991867;28;20226;-27
2022/01/19 04:09:27;;;;;;;27.60;17.97;;;4.10;99.90;;;;;;5007821;28;20272;-27
2022/01/19 04:12:02;;;;;;;26.70;18.13;;;4.10;99.90;;;;;;5009032;28;20308;-26
2022/01/19 04:14:30;;;;;;;27.87;17.03;;;4.20;99.90;;;;;;5009966;28;20213;-26
2022/01/19 04:17:09;;;;;;;27.17;17.13;;;4.30;99.90;;;;;;5007917;28;20671;-27
2022/01/19 04:19:45;;;;;;;23.27;16.23;;;4.30;99.90;;;;;;5007372;28;20320;-26
2022/01/19 04:22:18;;;;;;;27.17;17.03;;;4.30;99.90;;;;;;5009279;28;20613;-26
2022/01/19 04:24:49;;;;;;;25.97;16.07;;;4.40;99.90;;;;;;5005913;28;20221;-27
2022/01/19 04:35:06;;;;;;;24.00;14.97;;;4.50;99.90;;;;;;5006180;28;20297;-27
2022/01/19 04:37:53;;;;;;;25.30;15.73;;;4.60;99.90;;;;;;5009005;28;20208;-26
2022/01/19 04:54:37;;;;;;;20.30;13.60;;;4.80;99.90;;;;;;5008593;28;20651;-26
2022/01/19 05:05:30;;;;;;;20.50;14.03;;;5.00;99.90;;;;;;5007673;28;20201;-26
2022/01/19 05:08:09;;;;;;;21.43;13.13;;;5.00;99.90;;;;;;5008552;28;20216;-26
2022/01/19 05:13:50;;;;;;;18.23;13.33;;;5.10;99.90;;;;;;5008608;28;20267;-26
2022/01/19 05:16:01;;;;;;;17.10;12.47;;;5.20;99.90;;;;;;5007442;28;20583;-26
2022/01/19 05:18:31;;;;;;;20.67;12.80;;;5.20;99.90;;;;;;5006849;28;20272;-26
2022/01/19 05:21:00;;;;;;;18.77;12.90;;;5.30;99.90;;;;;;5001226;28;20219;-26
2022/01/19 05:23:27;;;;;;;17.80;12.23;;;5.30;99.90;;;;;;5008234;28;20210;-26
2022/01/19 05:25:55;;;;;;;16.93;12.13;;;5.30;99.90;;;;;;5007940;28;20691;-26
2022/01/19 05:28:25;;;;;;;18.63;12.70;;;5.30;99.90;;;;;;5005554;28;20217;-26
2022/01/19 05:30:53;;;;;;;18.30;12.80;;;5.40;99.90;;;;;;5005381;28;20239;-26
2022/01/19 05:33:22;;;;;;;17.90;12.73;;;5.40;99.90;;;;;;5002922;28;20232;-26
2022/01/19 05:35:52;;;;;;;21.03;12.93;;;5.40;99.90;;;;;;5007210;28;20213;-24
2022/01/19 05:38:21;;;;;;;19.20;13.47;;;5.40;99.90;;;;;;5008418;28;20197;-24
2022/01/19 05:40:54;;;;;;;19.33;12.90;;;5.50;99.90;;;;;;5008086;28;20210;-24
2022/01/19 05:43:24;;;;;;;20.43;14.47;;;5.50;99.90;;;;;;5011327;28;20650;-24
2022/01/19 05:45:53;;;;;;;21.77;14.37;;;5.50;99.90;;;;;;5006427;28;20292;-24
2022/01/19 05:48:24;;;;;;;20.37;13.50;;;5.50;99.90;;;;;;5008134;28;20316;-24
2022/01/19 05:50:55;;;;;;;19.27;13.80;;;5.50;99.90;;;;;;5007477;28;20284;-24
2022/01/19 05:53:26;;;;;;;22.03;14.53;;;5.50;99.90;;;;;;4997448;28;20902;-24
2022/01/19 05:55:58;;;;;;;18.13;13.03;;;5.60;99.90;;;;;;5005026;28;20609;-24
2022/01/19 05:58:27;;;;;;;19.63;13.43;;;5.60;99.90;;;;;;5003179;28;20348;-24
2022/01/19 06:00:55;;;;;;;18.27;13.57;;;5.60;99.90;;;;;;5003842;28;20206;-24
2022/01/19 06:03:24;;;;;;;18.27;14.20;;;5.60;99.90;;;;;;5008142;28;20995;-24
2022/01/19 06:05:51;;;;;;;18.83;14.07;;;5.60;99.90;;;;;;5006829;28;20201;-24
2022/01/19 06:10:55;;;;;;;22.07;14.33;;;5.60;99.90;;;;;;5004026;28;20198;-24
2022/01/19 06:13:26;;;;;;;19.43;14.20;;;5.60;99.90;;;;;;5006670;28;20213;-24
2022/01/19 06:15:53;;;;;;;19.47;14.93;;;5.60;99.90;;;;;;5039027;28;20209;-24
2022/01/19 06:18:24;;;;;;;19.47;14.10;;;5.60;99.90;;;;;;5008777;28;20202;-24
2022/01/19 06:20:55;;;;;;;18.17;14.57;;;5.60;99.90;;;;;;5007225;28;20762;-24
2022/01/19 06:23:27;;;;;;;18.63;14.47;;;5.70;99.90;;;;;;5010223;28;20632;-25
2022/01/19 06:25:57;;;;;;;17.47;13.97;;;5.70;99.90;;;;;;5009737;28;20205;-25
2022/01/19 06:28:26;;;;;;;19.37;14.53;;;5.70;99.90;;;;;;5007053;28;20371;-25
2022/01/19 06:30:54;;;;;;;18.97;14.00;;;5.70;99.90;;;;;;5007119;28;20723;-24
2022/01/19 06:33:21;;;;;;;17.73;13.80;;;5.70;99.90;;;;;;5009312;28;20304;-25
2022/01/19 06:35:48;;;;;;;19.37;14.33;;;5.70;99.90;;;;;;5011565;28;20205;-24
2022/01/19 06:38:16;;;;;;;20.20;14.50;;;5.70;99.90;;;;;;5010856;28;20549;-24
2022/01/19 06:40:43;;;;;;;18.57;14.77;;;5.80;99.90;;;;;;5012706;28;20299;-24
2022/01/19 06:43:10;;;;;;;20.70;15.13;;;5.80;99.90;;;;;;5013357;28;20225;-24
2022/01/19 06:45:37;;;;;;;19.07;14.23;;;5.80;99.90;;;;;;5013613;28;20667;-24
2022/01/19 06:48:05;;;;;;;20.17;14.60;;;5.80;99.90;;;;;;5013717;28;20228;-25
2022/01/19 06:50:34;;;;;;;21.67;15.60;;;5.80;99.90;;;;;;5013267;28;20727;-25
2022/01/19 06:53:02;;;;;;;21.73;15.77;;;5.80;99.90;;;;;;5011461;28;20844;-25
2022/01/19 06:55:29;;;;;;;19.03;14.83;;;5.80;99.90;;;;;;5044142;28;20205;-26
2022/01/19 06:57:58;;;;;;;22.83;15.77;;;5.90;99.90;;;;;;5011629;28;20200;-26
2022/01/19 07:00:27;;;;;;;20.93;16.13;;;5.90;99.90;;;;;;5013751;28;20719;-26
2022/01/19 07:02:54;;;;;;;21.63;16.20;;;5.90;99.90;;;;;;5013714;28;20271;-26
2022/01/19 07:05:26;;;;;;;18.77;15.13;;;5.90;99.90;;;;;;5011566;28;20193;-26
2022/01/19 07:07:56;;;;;;;20.87;15.07;;;5.90;99.90;;;;;;5011892;28;20706;-26
2022/01/19 07:10:24;;;;;;;16.57;14.17;;;5.90;99.90;;;;;;5011587;28;20213;-26
2022/01/19 07:12:53;;;;;;;22.50;15.40;;;6.00;99.90;;;;;;5009359;28;20197;-26
2022/01/19 07:15:27;;;;;;;22.43;15.40;;;6.00;99.90;;;;;;5008425;28;20206;-26
2022/01/19 07:17:57;;;;;;;20.00;15.13;;;6.00;99.90;;;;;;5013369;28;20232;-26
2022/01/19 07:20:25;;;;;;;21.43;14.87;;;6.00;99.90;;;;;;5013039;28;20715;-26
2022/01/19 07:22:56;;;;;;;18.53;14.33;;;6.00;99.90;;;;;;5001039;28;20202;-25
2022/01/19 07:25:23;;;;;;;21.60;15.50;;;6.00;99.90;;;;;;5004207;28;20286;-24
2022/01/19 07:27:53;;;;;;;20.87;15.50;;;6.00;99.90;;;;;;5011178;28;20246;-24
2022/01/19 07:30:20;;;;;;;19.37;15.47;;;6.00;99.90;;;;;;5006450;28;20297;-25
2022/01/19 07:32:49;;;;;;;23.00;15.40;;;6.00;99.90;;;;;;5006194;28;20206;-24
2022/01/19 07:35:17;;;;;;;28.30;16.03;;;6.10;99.90;;;;;;5006678;28;20293;-25
2022/01/19 07:37:44;;;;;;;19.10;15.63;;;6.00;99.90;;;;;;5008874;28;22227;-25
2022/01/19 07:40:12;;;;;;;23.60;14.80;;;6.10;99.90;;;;;;5007298;28;20198;-24
2022/01/19 07:42:42;;;;;;;21.17;15.50;;;6.10;99.90;;;;;;5002892;28;20339;-25
2022/01/19 07:45:09;;;;;;;25.73;16.57;;;6.10;99.90;;;;;;4998402;28;20221;-24
2022/01/19 07:47:41;;;;;;;22.37;16.83;;;6.10;99.90;;;;;;5007576;28;20228;-24
2022/01/19 07:50:09;;;;;;;19.53;15.70;;;6.10;99.90;;;;;;5007907;28;20284;-24
2022/01/19 07:52:38;;;;;;;24.00;16.80;;;6.10;99.90;;;;;;5009278;28;20625;-24
2022/01/19 07:55:06;;;;;;;21.67;15.80;;;6.10;99.90;;;;;;5009031;28;20201;-24
2022/01/19 07:57:33;;;;;;;22.83;16.00;;;6.10;99.90;;;;;;5014179;28;20197;-24
2022/01/19 08:00:01;;;;;;;24.73;16.93;;;6.10;99.90;;;;;;5006632;28;20646;-24
2022/01/19 08:02:32;;;;;;;32.00;17.43;;;6.10;99.90;;;;;;5008408;28;20217;-25
2022/01/19 08:05:05;;;;;;;32.97;17.03;;;6.10;99.90;;;;;;5006548;28;20205;-24
2022/01/19 08:07:33;;;;;;;22.97;16.77;;;6.10;99.90;;;;;;5007928;28;20221;-24
2022/01/19 08:10:03;;;;;;;23.67;16.90;;;6.20;99.90;;;;;;5040851;28;20208;-25
2022/01/19 08:12:33;;;;;;;29.73;18.00;;;6.20;99.90;;;;;;5040246;28;20286;-25
2022/01/19 08:15:01;;;;;;;24.80;16.97;;;6.20;99.90;;;;;;5023337;28;20580;-24
2022/01/19 08:17:28;;;;;;;26.53;17.07;;;6.20;99.90;;;;;;5008554;28;20210;-25
2022/01/19 08:19:58;;;;;;;26.40;16.83;;;6.20;99.90;;;;;;5023726;28;20221;-25
2022/01/19 08:22:28;;;;;;;25.50;16.87;;;6.20;99.90;;;;;;5009777;28;20288;-25
2022/01/19 08:24:59;;;;;;;30.50;17.60;;;6.20;99.90;;;;;;5008394;28;20248;-24
2022/01/19 08:27:29;;;;;;;32.67;17.27;;;6.30;99.90;;;;;;5024350;28;20696;-24
2022/01/19 08:29:57;;;;;;;27.40;18.17;;;6.30;99.90;;;;;;5007096;28;20545;-25
2022/01/19 08:32:32;;;;;;;41.00;17.77;;;6.30;99.90;;;;;;5002004;28;20245;-25
2022/01/19 08:35:06;;;;;;;25.10;17.53;;;6.30;99.90;;;;;;5005673;28;20255;-25
2022/01/19 08:37:36;;;;;;;24.27;16.30;;;6.30;99.90;;;;;;5009156;28;20224;-25
2022/01/19 08:40:05;;;;;;;24.87;17.30;;;6.30;99.90;;;;;;5009036;28;20578;-24
2022/01/19 08:42:38;;;;;;;24.30;17.93;;;6.30;99.90;;;;;;5008510;28;20676;-24
2022/01/19 08:45:08;;;;;;;26.27;19.30;;;6.30;99.90;;;;;;5019789;28;20201;-25
2022/01/19 08:47:39;;;;;;;23.23;17.57;;;6.30;99.90;;;;;;5009601;28;20620;-24
2022/01/19 08:50:09;;;;;;;22.27;17.83;;;6.30;99.90;;;;;;5005944;28;20229;-24
2022/01/19 08:52:37;;;;;;;27.20;17.67;;;6.30;99.90;;;;;;5008914;28;20700;-24
2022/01/19 08:55:07;;;;;;;21.77;17.73;;;6.30;99.90;;;;;;5021057;28;20441;-25
2022/01/19 08:57:36;;;;;;;22.67;17.20;;;6.30;99.90;;;;;;5024776;28;20210;-25
2022/01/19 09:00:15;;;;;;;30.47;18.57;;;6.30;99.90;;;;;;5008109;28;20456;-24
2022/01/19 09:02:47;;;;;;;32.80;17.53;;;6.30;99.90;;;;;;5023517;28;20194;-24
2022/01/19 09:05:16;;;;;;;23.73;17.70;;;6.30;99.90;;;;;;5007207;28;20201;-24
2022/01/19 09:07:44;;;;;;;23.87;16.77;;;6.30;99.90;;;;;;5008544;28;20488;-25
2022/01/19 09:10:17;;;;;;;22.97;17.33;;;6.30;99.90;;;;;;5007314;28;20212;-26
2022/01/19 09:12:44;;;;;;;23.77;17.53;;;6.30;99.90;;;;;;5007814;28;20209;-24
2022/01/19 09:15:18;;;;;;;22.93;17.63;;;6.30;99.90;;;;;;5005788;28;20676;-24
2022/01/19 09:17:46;;;;;;;23.33;17.67;;;6.40;99.90;;;;;;5007804;28;20216;-24
2022/01/19 09:20:15;;;;;;;21.13;16.30;;;6.40;99.90;;;;;;5006876;28;20600;-25
2022/01/19 09:22:43;;;;;;;21.33;16.87;;;6.40;99.90;;;;;;4990422;28;20569;-24
2022/01/19 09:25:12;;;;;;;21.63;17.23;;;6.40;99.90;;;;;;5006498;28;20213;-25
2022/01/19 09:27:40;;;;;;;21.23;16.80;;;6.40;99.90;;;;;;5006674;28;20219;-24
2022/01/19 09:30:14;;;;;;;20.53;16.40;;;6.40;99.90;;;;;;5001169;28;20221;-24
2022/01/19 09:32:55;;;;;;;21.60;17.90;;;6.50;99.90;;;;;;5012933;28;20671;-25
2022/01/19 09:35:25;;;;;;;22.90;17.17;;;6.50;99.90;;;;;;5002659;28;20293;-27
2022/01/19 09:37:55;;;;;;;24.60;17.20;;;6.50;99.90;;;;;;5005967;28;20221;-25
2022/01/19 09:40:29;;;;;;;24.37;17.83;;;6.50;99.90;;;;;;5005332;28;20216;-25
2022/01/19 09:43:07;;;;;;;23.30;17.83;;;6.50;99.90;;;;;;5006619;28;20806;-24
2022/01/19 09:45:37;;;;;;;22.17;17.53;;;6.50;99.90;;;;;;5005314;28;20217;-24
2022/01/19 09:48:05;;;;;;;24.20;17.47;;;6.60;99.90;;;;;;5003955;28;20213;-24
2022/01/19 09:50:34;;;;;;;23.90;17.40;;;6.60;99.90;;;;;;5004182;28;20243;-25
2022/01/19 09:53:05;;;;;;;21.63;17.17;;;6.60;99.90;;;;;;5015678;28;20197;-25
2022/01/19 09:55:38;;;;;;;23.20;17.90;;;6.60;99.90;;;;;;5005354;28;20213;-25
2022/01/19 09:58:07;;;;;;;25.47;17.87;;;6.60;99.90;;;;;;5006574;28;20208;-24
2022/01/19 10:00:39;;;;;;;23.30;17.37;;;6.60;99.90;;;;;;5005120;28;20216;-24
2022/01/19 10:03:21;;;;;;;23.60;17.73;;;6.60;99.90;;;;;;5006926;28;20735;-24
2022/01/19 10:06:07;;;;;;;22.87;18.00;;;6.60;99.90;;;;;;5006816;28;20194;-24
2022/01/19 10:08:36;;;;;;;23.43;18.57;;;6.70;99.90;;;;;;5007898;28;20221;-25
2022/01/19 10:11:13;;;;;;;22.57;19.03;;;6.70;99.90;;;;;;5007801;28;20209;-25
2022/01/19 10:19:23;;;;;;;27.63;18.83;;;6.70;99.90;;;;;;5006143;28;20301;-25
2022/01/19 10:22:13;;;;;;;25.67;19.13;;;6.70;99.90;;;;;;5007896;28;20219;-25
2022/01/19 10:24:46;;;;;;;24.13;18.90;;;6.70;99.90;;;;;;4999844;28;20673;-25
2022/01/19 10:27:21;;;;;;;27.40;19.43;;;6.80;99.90;;;;;;5008488;28;20671;-24
2022/01/19 10:29:51;;;;;;;27.20;19.17;;;6.80;99.90;;;;;;5007660;28;20225;-25
2022/01/19 10:32:22;;;;;;;26.47;19.70;;;6.80;99.90;;;;;;4989137;28;20326;-24
2022/01/19 10:34:53;;;;;;;26.80;19.67;;;6.80;99.90;;;;;;5015875;28;20203;-25
2022/01/19 10:37:25;;;;;;;32.77;20.53;;;6.80;99.90;;;;;;5022097;28;20269;-25
2022/01/19 10:40:00;;;;;;;26.57;19.60;;;6.80;99.90;;;;;;5008581;28;20499;-24
2022/01/19 10:42:31;;;;;;;24.00;18.87;;;6.90;99.90;;;;;;5007256;28;20205;-24
2022/01/19 10:45:06;;;;;;;25.57;20.33;;;6.90;99.90;;;;;;5007311;28;20205;-25
2022/01/19 10:47:40;;;;;;;24.47;19.20;;;6.90;99.90;;;;;;5011756;28;20206;-25
2022/01/19 10:50:14;;;;;;;26.50;20.40;;;6.90;99.90;;;;;;5007535;28;20233;-25
2022/01/19 10:52:46;;;;;;;25.43;19.97;;;6.90;99.90;;;;;;5018203;28;20577;-24
2022/01/19 10:55:19;;;;;;;29.30;20.80;;;6.90;99.90;;;;;;5006445;28;20997;-25
2022/01/19 10:57:52;;;;;;;28.30;22.33;;;6.90;99.90;;;;;;5004178;28;20341;-24
2022/01/19 11:00:28;;;;;;;28.33;20.43;;;6.90;99.90;;;;;;5010002;28;20204;-25
2022/01/19 11:03:14;;;;;;;23.90;18.90;;;6.90;99.90;;;;;;5015387;28;20333;-25
2022/01/19 11:05:49;;;;;;;26.67;19.63;;;6.90;99.90;;;;;;5005574;28;20444;-25
2022/01/19 11:08:22;;;;;;;25.80;20.83;;;6.90;99.90;;;;;;5008616;28;20316;-25
2022/01/19 11:10:52;;;;;;;29.30;21.50;;;7.00;99.90;;;;;;5009426;28;20584;-24
2022/01/19 11:13:38;;;;;;;26.13;19.77;;;7.00;99.90;;;;;;5010129;28;20552;-26
2022/01/19 11:16:08;;;;;;;26.77;19.93;;;7.00;99.90;;;;;;5010702;28;20752;-25
2022/01/19 11:18:39;;;;;;;30.20;20.37;;;7.00;99.90;;;;;;5010102;28;20210;-25
2022/01/19 11:21:11;;;;;;;25.63;20.17;;;7.00;99.90;;;;;;5010381;28;20284;-24
2022/01/19 11:24:07;;;;;;;26.13;19.23;;;7.00;99.90;;;;;;5009684;28;20236;-24
2022/01/19 11:26:41;;;;;;;30.17;21.00;;;7.00;99.90;;;;;;5010610;28;20219;-25
2022/01/19 11:29:15;;;;;;;28.53;21.67;;;7.10;99.90;;;;;;5007552;28;20877;-25
2022/01/19 11:31:45;;;;;;;28.30;20.53;;;7.10;99.90;;;;;;5010262;28;20224;-25
2022/01/19 11:34:17;;;;;;;29.47;21.00;;;7.10;99.90;;;;;;5009323;28;20248;-25
2022/01/19 11:36:45;;;;;;;29.10;20.63;;;7.10;99.90;;;;;;5007561;28;20272;-24
2022/01/19 11:39:20;;;;;;;27.83;20.60;;;7.10;99.90;;;;;;5010883;28;20248;-24
2022/01/19 11:42:07;;;;;;;32.70;21.37;;;7.10;99.90;;;;;;5020556;28;20212;-25
2022/01/19 11:44:35;;;;;;;28.90;21.10;;;7.10;99.90;;;;;;5009837;28;20232;-24
2022/01/19 11:47:08;;;;;;;29.77;21.83;;;7.10;99.90;;;;;;5025537;28;20709;-25
2022/01/19 11:50:19;;;;;;;29.63;21.27;;;7.10;99.90;;;;;;5009308;28;20608;-25
2022/01/19 11:52:48;;;;;;;29.27;20.97;;;7.10;99.90;;;;;;5024113;28;20216;-24
2022/01/19 11:55:26;;;;;;;28.83;21.53;;;7.10;99.90;;;;;;5024681;28;20193;-24
2022/01/19 11:58:16;;;;;;;34.37;21.60;;;7.20;99.90;;;;;;5010365;28;20301;-25
2022/01/19 12:00:47;;;;;;;30.27;21.10;;;7.20;99.90;;;;;;5009466;28;20201;-25
2022/01/19 12:03:21;;;;;;;30.87;22.17;;;7.20;99.90;;;;;;5009826;28;20555;-24
2022/01/19 12:06:09;;;;;;;31.07;21.90;;;7.20;99.90;;;;;;5009960;28;20287;-25
2022/01/19 12:08:40;;;;;;;31.87;21.93;;;7.20;99.90;;;;;;5009713;28;20217;-25
2022/01/19 12:11:13;;;;;;;31.30;21.77;;;7.20;99.90;;;;;;5011096;28;20271;-24
2022/01/19 12:16:32;;;;;;;29.17;21.53;;;7.20;99.90;;;;;;5012219;28;20209;-25
2022/01/19 12:19:07;;;;;;;29.03;20.83;;;7.20;99.90;;;;;;5033969;28;20208;-25
2022/01/19 12:21:36;;;;;;;40.60;22.93;;;7.20;99.90;;;;;;5023695;28;20227;-25
2022/01/19 12:24:54;;;;;;;33.93;22.03;;;7.20;99.90;;;;;;5008764;28;20216;-25
2022/01/19 12:27:23;;;;;;;31.30;22.13;;;7.30;99.90;;;;;;5015100;28;20256;-25
2022/01/19 12:30:06;;;;;;;29.67;21.97;;;7.30;99.90;;;;;;5004808;28;20726;-24
2022/01/19 12:32:36;;;;;;;31.07;21.37;;;7.30;99.90;;;;;;5009591;28;20671;-23
2022/01/19 12:35:18;;;;;;;34.10;21.73;;;7.30;99.90;;;;;;5007784;28;20201;-23
2022/01/19 12:37:54;;;;;;;27.50;20.70;;;7.30;99.90;;;;;;5005501;28;20625;-23
2022/01/19 12:40:40;;;;;;;28.17;20.80;;;7.30;99.90;;;;;;5011109;28;20206;-23
2022/01/19 12:43:27;;;;;;;26.27;20.83;;;7.40;99.90;;;;;;5002931;28;20535;-23
2022/01/19 12:45:55;;;;;;;27.87;21.07;;;7.40;99.90;;;;;;5008616;28;20197;-23
2022/01/19 12:48:39;;;;;;;27.37;20.37;;;7.40;99.90;;;;;;5009045;28;20312;-25
2022/01/19 12:51:06;;;;;;;27.97;21.47;;;7.40;99.90;;;;;;5007985;28;20299;-25
2022/01/19 12:53:36;;;;;;;27.17;20.87;;;7.40;99.90;;;;;;5009375;28;20202;-25
2022/01/19 12:56:11;;;;;;;28.13;19.63;;;7.50;99.90;;;;;;5008905;28;20198;-25
2022/01/19 12:58:39;;;;;;;27.60;20.57;;;7.50;99.90;;;;;;5006529;28;20698;-25
2022/01/19 13:01:09;;;;;;;27.10;20.87;;;7.50;99.90;;;;;;5040856;28;20224;-25
2022/01/19 13:03:42;;;;;;;28.10;21.13;;;7.50;99.90;;;;;;5009335;28;20668;-27
2022/01/19 13:06:14;;;;;;;27.37;20.20;;;7.50;99.90;;;;;;5008208;28;20615;-28
2022/01/19 13:09:01;;;;;;;28.90;20.23;;;7.60;99.90;;;;;;5043399;28;20228;-27
2022/01/19 13:11:37;;;;;;;29.00;20.47;;;7.60;99.90;;;;;;4989396;28;20194;-28
2022/01/19 13:14:07;;;;;;;27.30;21.10;;;7.60;99.90;;;;;;4996647;28;20201;-27
2022/01/19 13:16:48;;;;;;;30.83;22.30;;;7.60;99.90;;;;;;5009452;28;20201;-26
2022/01/19 13:19:21;;;;;;;29.07;21.03;;;7.60;99.90;;;;;;5008019;28;20217;-26
2022/01/19 13:21:59;;;;;;;30.03;20.90;;;7.60;99.90;;;;;;5008300;28;20303;-27
2022/01/19 13:24:27;;;;;;;30.33;21.00;;;7.60;99.90;;;;;;5007237;28;20393;-26
2022/01/19 13:27:07;;;;;;;28.73;20.93;;;7.60;99.90;;;;;;5007077;28;20260;-26
2022/01/19 13:29:39;;;;;;;33.70;21.40;;;7.60;99.90;;;;;;5006202;28;20618;-26
2022/01/19 13:32:12;;;;;;;29.57;21.47;;;7.60;99.90;;;;;;5007639;28;20301;-26
2022/01/19 13:34:57;;;;;;;29.70;21.53;;;7.60;99.90;;;;;;5009418;28;20213;-27
2022/01/19 13:37:45;;;;;;;31.37;22.03;;;7.60;99.90;;;;;;5004805;28;20614;-26
2022/01/19 13:40:19;;;;;;;29.00;20.80;;;7.60;99.90;;;;;;5022387;28;20198;-26
2022/01/19 13:43:04;;;;;;;32.30;21.90;;;7.70;99.90;;;;;;5021491;28;20275;-27
2022/01/19 13:50:49;;;;;;;29.57;21.63;;;7.70;99.90;;;;;;5006435;28;20241;-26
2022/01/19 13:53:27;;;;;;;29.87;21.43;;;7.70;99.90;;;;;;5038383;28;20244;-26
2022/01/19 13:56:03;;;;;;;29.70;21.27;;;7.70;99.90;;;;;;5006732;28;20205;-26
2022/01/19 13:58:55;;;;;;;28.77;21.77;;;7.70;99.90;;;;;;5021857;28;20196;-27
2022/01/19 14:04:22;;;;;;;28.43;21.63;;;7.80;99.90;;;;;;5025200;28;20209;-27
2022/01/19 14:06:52;;;;;;;29.50;21.63;;;7.80;99.90;;;;;;5004325;28;20208;-26
2022/01/19 14:09:31;;;;;;;31.77;21.63;;;7.80;99.90;;;;;;5021533;28;20609;-26
2022/01/19 14:12:08;;;;;;;29.00;21.13;;;7.80;99.90;;;;;;5012212;28;20298;-26
2022/01/19 14:14:42;;;;;;;31.50;21.80;;;7.80;99.90;;;;;;5011529;28;20292;-27
2022/01/19 14:17:12;;;;;;;29.47;20.60;;;7.80;99.90;;;;;;5008794;28;20229;-26
2022/01/19 14:19:51;;;;;;;30.67;21.90;;;7.80;99.90;;;;;;5006629;28;20220;-26
2022/01/19 14:22:24;;;;;;;30.63;21.40;;;7.80;99.90;;;;;;5007488;28;20576;-26
2022/01/19 14:24:55;;;;;;;30.30;22.30;;;7.80;99.90;;;;;;5007897;28;20216;-26
2022/01/19 14:27:51;;;;;;;29.60;22.67;;;7.80;99.90;;;;;;5006797;28;20221;-27
2022/01/19 14:30:32;;;;;;;30.43;22.07;;;7.80;99.90;;;;;;4998787;28;20247;-27
2022/01/19 14:33:13;;;;;;;32.73;22.10;;;7.80;99.90;;;;;;5009443;28;20622;-26
2022/01/19 14:35:41;;;;;;;31.87;22.97;;;7.80;99.90;;;;;;5012721;28;20205;-27
2022/01/19 14:38:26;;;;;;;37.20;22.60;;;7.80;99.90;;;;;;5011381;28;20691;-26
2022/01/19 14:41:07;;;;;;;30.70;21.57;;;7.90;99.90;;;;;;4992602;28;20703;-26